sensor_id;sensor_type;location;lat;lon;timestamp;pressure;altitude;pressure_sealevel;temperature
78905;BMP280;68291;49.602;8.722;2023-06-22T00:00:11;99509.66;;;24.93
78905;BMP280;68291;49.602;8.722;2023-06-22T00:02:45;99505.81;;;24.87
78905;BMP280;68291;49.602;8.722;2023-06-22T00:05:20;99509.22;;;24.80
78905;BMP280;68291;49.602;8.722;2023-06-22T00:08:20;99509.84;;;24.66
78905;BMP280;68291;49.602;8.722;2023-06-22T00:10:52;99510.59;;;24.59
78905;BMP280;68291;49.602;8.722;2023-06-22T00:13:44;99510.41;;;24.52
78905;BMP280;68291;49.602;8.722;2023-06-22T00:16:17;99511.06;;;24.54
78905;BMP280;68291;49.602;8.722;2023-06-22T00:19:14;99505.13;;;24.52
78905;BMP280;68291;49.602;8.722;2023-06-22T00:22:10;99516.66;;;24.51
78905;BMP280;68291;49.602;8.722;2023-06-22T00:25:32;99519.75;;;24.47
78905;BMP280;68291;49.602;8.722;2023-06-22T00:28:04;99524.03;;;24.48
78905;BMP280;68291;49.602;8.722;2023-06-22T00:30:54;99542.63;;;24.46
78905;BMP280;68291;49.602;8.722;2023-06-22T00:33:35;99542.94;;;24.43
78905;BMP280;68291;49.602;8.722;2023-06-22T00:36:07;99558.22;;;24.40
78905;BMP280;68291;49.602;8.722;2023-06-22T00:38:46;99568.56;;;24.41
78905;BMP280;68291;49.602;8.722;2023-06-22T00:41:46;99576.81;;;24.39
78905;BMP280;68291;49.602;8.722;2023-06-22T00:44:22;99595.00;;;24.32
78905;BMP280;68291;49.602;8.722;2023-06-22T00:47:00;99594.94;;;24.24
78905;BMP280;68291;49.602;8.722;2023-06-22T00:49:44;99616.75;;;24.34
78905;BMP280;68291;49.602;8.722;2023-06-22T00:52:15;99652.78;;;24.34
78905;BMP280;68291;49.602;8.722;2023-06-22T00:55:03;99723.19;;;24.32
78905;BMP280;68291;49.602;8.722;2023-06-22T00:57:41;99761.84;;;24.31
78905;BMP280;68291;49.602;8.722;2023-06-22T01:00:24;99809.81;;;24.42
78905;BMP280;68291;49.602;8.722;2023-06-22T01:03:08;99843.09;;;24.61
78905;BMP280;68291;49.602;8.722;2023-06-22T01:06:08;99866.66;;;24.79
78905;BMP280;68291;49.602;8.722;2023-06-22T01:09:13;99831.09;;;24.93
78905;BMP280;68291;49.602;8.722;2023-06-22T01:12:06;99696.56;;;24.94
78905;BMP280;68291;49.602;8.722;2023-06-22T01:15:00;99577.78;;;24.88
78905;BMP280;68291;49.602;8.722;2023-06-22T01:17:37;99533.94;;;24.79
78905;BMP280;68291;49.602;8.722;2023-06-22T01:20:34;99505.25;;;24.68
78905;BMP280;68291;49.602;8.722;2023-06-22T01:23:35;99388.50;;;24.60
78905;BMP280;68291;49.602;8.722;2023-06-22T01:26:21;99430.72;;;24.42
78905;BMP280;68291;49.602;8.722;2023-06-22T01:29:01;99459.44;;;24.28
78905;BMP280;68291;49.602;8.722;2023-06-22T01:31:45;99471.69;;;24.20
78905;BMP280;68291;49.602;8.722;2023-06-22T01:34:32;99470.84;;;24.19
78905;BMP280;68291;49.602;8.722;2023-06-22T01:37:29;99468.22;;;24.19
78905;BMP280;68291;49.602;8.722;2023-06-22T01:40:12;99483.19;;;24.19
78905;BMP280;68291;49.602;8.722;2023-06-22T01:42:53;99496.97;;;24.13
78905;BMP280;68291;49.602;8.722;2023-06-22T01:45:52;99517.31;;;24.03
78905;BMP280;68291;49.602;8.722;2023-06-22T01:48:29;99548.88;;;24.03
78905;BMP280;68291;49.602;8.722;2023-06-22T01:51:14;99550.81;;;24.01
78905;BMP280;68291;49.602;8.722;2023-06-22T01:53:51;99547.97;;;23.95
78905;BMP280;68291;49.602;8.722;2023-06-22T01:56:40;99569.63;;;23.89
78905;BMP280;68291;49.602;8.722;2023-06-22T01:59:25;99560.50;;;23.83
78905;BMP280;68291;49.602;8.722;2023-06-22T02:02:39;99550.75;;;23.76
78905;BMP280;68291;49.602;8.722;2023-06-22T02:05:26;99564.63;;;23.69
78905;BMP280;68291;49.602;8.722;2023-06-22T02:08:11;99567.88;;;23.63
78905;BMP280;68291;49.602;8.722;2023-06-22T02:10:58;99577.94;;;23.67
78905;BMP280;68291;49.602;8.722;2023-06-22T02:13:34;99571.56;;;23.70
78905;BMP280;68291;49.602;8.722;2023-06-22T02:16:12;99571.03;;;23.66
78905;BMP280;68291;49.602;8.722;2023-06-22T02:18:57;99579.34;;;23.62
78905;BMP280;68291;49.602;8.722;2023-06-22T02:21:39;99563.91;;;23.59
78905;BMP280;68291;49.602;8.722;2023-06-22T02:24:13;99572.75;;;23.58
78905;BMP280;68291;49.602;8.722;2023-06-22T02:27:02;99578.69;;;23.60
78905;BMP280;68291;49.602;8.722;2023-06-22T02:30:00;99573.59;;;23.58
78905;BMP280;68291;49.602;8.722;2023-06-22T02:32:45;99563.91;;;23.59
78905;BMP280;68291;49.602;8.722;2023-06-22T02:35:44;99556.28;;;23.56
78905;BMP280;68291;49.602;8.722;2023-06-22T02:38:39;99550.34;;;23.54
78905;BMP280;68291;49.602;8.722;2023-06-22T02:41:29;99549.66;;;23.52
78905;BMP280;68291;49.602;8.722;2023-06-22T02:44:27;99557.78;;;23.41
78905;BMP280;68291;49.602;8.722;2023-06-22T02:47:03;99575.63;;;23.37
78905;BMP280;68291;49.602;8.722;2023-06-22T02:49:54;99572.06;;;23.29
78905;BMP280;68291;49.602;8.722;2023-06-22T02:52:29;99560.88;;;23.27
78905;BMP280;68291;49.602;8.722;2023-06-22T02:55:00;99554.94;;;23.25
78905;BMP280;68291;49.602;8.722;2023-06-22T02:57:39;99546.00;;;23.18
78905;BMP280;68291;49.602;8.722;2023-06-22T03:00:14;99543.38;;;23.18
78905;BMP280;68291;49.602;8.722;2023-06-22T03:02:49;99536.47;;;23.17
78905;BMP280;68291;49.602;8.722;2023-06-22T03:05:25;99535.50;;;23.18
78905;BMP280;68291;49.602;8.722;2023-06-22T03:08:12;99533.53;;;23.20
78905;BMP280;68291;49.602;8.722;2023-06-22T03:10:46;99532.88;;;23.18
78905;BMP280;68291;49.602;8.722;2023-06-22T03:13:33;99523.25;;;23.09
78905;BMP280;68291;49.602;8.722;2023-06-22T03:16:09;99536.38;;;23.09
78905;BMP280;68291;49.602;8.722;2023-06-22T03:18:56;99527.13;;;23.05
78905;BMP280;68291;49.602;8.722;2023-06-22T03:21:33;99534.31;;;23.03
78905;BMP280;68291;49.602;8.722;2023-06-22T03:24:30;99526.75;;;23.01
78905;BMP280;68291;49.602;8.722;2023-06-22T03:27:31;99520.00;;;22.98
78905;BMP280;68291;49.602;8.722;2023-06-22T03:30:03;99519.44;;;22.95
78905;BMP280;68291;49.602;8.722;2023-06-22T03:32:40;99530.34;;;23.00
78905;BMP280;68291;49.602;8.722;2023-06-22T03:35:20;99522.63;;;22.98
78905;BMP280;68291;49.602;8.722;2023-06-22T03:38:05;99514.56;;;23.00
78905;BMP280;68291;49.602;8.722;2023-06-22T03:40:49;99514.88;;;22.97
78905;BMP280;68291;49.602;8.722;2023-06-22T03:43:31;99512.69;;;22.92
78905;BMP280;68291;49.602;8.722;2023-06-22T03:46:11;99514.75;;;22.89
78905;BMP280;68291;49.602;8.722;2023-06-22T03:49:05;99506.06;;;22.88
78905;BMP280;68291;49.602;8.722;2023-06-22T03:51:39;99510.06;;;22.92
78905;BMP280;68291;49.602;8.722;2023-06-22T03:54:20;99504.25;;;22.89
78905;BMP280;68291;49.602;8.722;2023-06-22T03:57:07;99509.53;;;22.79
78905;BMP280;68291;49.602;8.722;2023-06-22T04:00:05;99517.28;;;22.81
78905;BMP280;68291;49.602;8.722;2023-06-22T04:03:15;99518.91;;;22.82
78905;BMP280;68291;49.602;8.722;2023-06-22T04:06:09;99515.91;;;22.77
78905;BMP280;68291;49.602;8.722;2023-06-22T04:08:40;99524.06;;;22.74
78905;BMP280;68291;49.602;8.722;2023-06-22T04:11:12;99509.72;;;22.68
78905;BMP280;68291;49.602;8.722;2023-06-22T04:13:55;99520.91;;;22.70
78905;BMP280;68291;49.602;8.722;2023-06-22T04:16:36;99525.19;;;22.71
78905;BMP280;68291;49.602;8.722;2023-06-22T04:19:08;99519.78;;;22.73
78905;BMP280;68291;49.602;8.722;2023-06-22T04:21:50;99518.91;;;22.82
78905;BMP280;68291;49.602;8.722;2023-06-22T04:24:38;99505.38;;;22.86
78905;BMP280;68291;49.602;8.722;2023-06-22T04:27:24;99503.44;;;22.88
78905;BMP280;68291;49.602;8.722;2023-06-22T04:30:10;99501.22;;;22.84
78905;BMP280;68291;49.602;8.722;2023-06-22T04:33:02;99507.06;;;22.78
78905;BMP280;68291;49.602;8.722;2023-06-22T04:35:50;99499.59;;;22.73
78905;BMP280;68291;49.602;8.722;2023-06-22T04:38:37;99500.53;;;22.82
78905;BMP280;68291;49.602;8.722;2023-06-22T04:41:34;99499.69;;;22.91
78905;BMP280;68291;49.602;8.722;2023-06-22T04:44:26;99499.81;;;22.99
78905;BMP280;68291;49.602;8.722;2023-06-22T04:47:08;99487.72;;;23.05
78905;BMP280;68291;49.602;8.722;2023-06-22T04:49:58;99485.34;;;23.12
78905;BMP280;68291;49.602;8.722;2023-06-22T04:52:41;99485.88;;;23.15
78905;BMP280;68291;49.602;8.722;2023-06-22T04:55:17;99475.28;;;23.07
78905;BMP280;68291;49.602;8.722;2023-06-22T04:58:01;99490.34;;;23.05
78905;BMP280;68291;49.602;8.722;2023-06-22T05:00:59;99487.72;;;23.05
78905;BMP280;68291;49.602;8.722;2023-06-22T05:03:44;99476.91;;;23.08
78905;BMP280;68291;49.602;8.722;2023-06-22T05:06:29;99471.00;;;23.06
78905;BMP280;68291;49.602;8.722;2023-06-22T05:09:17;99477.81;;;23.17
78905;BMP280;68291;49.602;8.722;2023-06-22T05:12:27;99469.72;;;23.28
78905;BMP280;68291;49.602;8.722;2023-06-22T05:15:05;99462.75;;;23.36
78905;BMP280;68291;49.602;8.722;2023-06-22T05:17:40;99462.47;;;23.39
78905;BMP280;68291;49.602;8.722;2023-06-22T05:20:23;99458.41;;;23.44
78905;BMP280;68291;49.602;8.722;2023-06-22T05:23:03;99454.50;;;23.48
78905;BMP280;68291;49.602;8.722;2023-06-22T05:25:41;99456.00;;;23.51
78905;BMP280;68291;49.602;8.722;2023-06-22T05:28:37;99437.69;;;23.59
78905;BMP280;68291;49.602;8.722;2023-06-22T05:31:27;99438.41;;;23.69
78905;BMP280;68291;49.602;8.722;2023-06-22T05:34:11;99444.97;;;23.82
78905;BMP280;68291;49.602;8.722;2023-06-22T05:36:56;99440.13;;;23.95
78905;BMP280;68291;49.602;8.722;2023-06-22T05:39:50;99449.53;;;24.05
78905;BMP280;68291;49.602;8.722;2023-06-22T05:42:39;99445.16;;;24.13
78905;BMP280;68291;49.602;8.722;2023-06-22T05:45:15;99452.00;;;24.24
78905;BMP280;68291;49.602;8.722;2023-06-22T05:47:46;99430.84;;;24.33
78905;BMP280;68291;49.602;8.722;2023-06-22T05:50:33;99443.75;;;24.44
78905;BMP280;68291;49.602;8.722;2023-06-22T05:53:12;99442.47;;;24.56
78905;BMP280;68291;49.602;8.722;2023-06-22T05:55:53;99444.00;;;24.66
78905;BMP280;68291;49.602;8.722;2023-06-22T05:58:25;99442.72;;;24.78
78905;BMP280;68291;49.602;8.722;2023-06-22T06:01:10;99419.84;;;24.78
78905;BMP280;68291;49.602;8.722;2023-06-22T06:03:50;99444.28;;;24.96
78905;BMP280;68291;49.602;8.722;2023-06-22T06:06:29;99437.06;;;25.06
78905;BMP280;68291;49.602;8.722;2023-06-22T06:09:20;99443.84;;;25.16
78905;BMP280;68291;49.602;8.722;2023-06-22T06:12:11;99432.47;;;25.16
78905;BMP280;68291;49.602;8.722;2023-06-22T06:14:45;99437.47;;;25.35
78905;BMP280;68291;49.602;8.722;2023-06-22T06:17:27;99441.91;;;25.42
78905;BMP280;68291;49.602;8.722;2023-06-22T06:20:09;99411.91;;;25.51
78905;BMP280;68291;49.602;8.722;2023-06-22T06:22:46;99426.78;;;25.60
78905;BMP280;68291;49.602;8.722;2023-06-22T06:25:37;99420.53;;;25.69
78905;BMP280;68291;49.602;8.722;2023-06-22T06:28:13;99414.06;;;25.79
78905;BMP280;68291;49.602;8.722;2023-06-22T06:31:01;99432.38;;;25.88
78905;BMP280;68291;49.602;8.722;2023-06-22T06:33:43;99437.47;;;25.98
78905;BMP280;68291;49.602;8.722;2023-06-22T06:36:29;99433.66;;;26.08
78905;BMP280;68291;49.602;8.722;2023-06-22T06:39:19;99420.78;;;26.21
78905;BMP280;68291;49.602;8.722;2023-06-22T06:42:23;99416.78;;;26.33
78905;BMP280;68291;49.602;8.722;2023-06-22T06:44:58;99418.91;;;26.45
78905;BMP280;68291;49.602;8.722;2023-06-22T06:47:29;99416.53;;;26.58
78905;BMP280;68291;49.602;8.722;2023-06-22T06:50:09;99417.63;;;26.71
78905;BMP280;68291;49.602;8.722;2023-06-22T06:52:41;99416.28;;;26.83
78905;BMP280;68291;49.602;8.722;2023-06-22T06:55:24;99407.16;;;26.93
78905;BMP280;68291;49.602;8.722;2023-06-22T06:58:07;99407.75;;;27.03
78905;BMP280;68291;49.602;8.722;2023-06-22T07:00:57;99413.47;;;27.15
78905;BMP280;68291;49.602;8.722;2023-06-22T07:03:50;99417.34;;;27.26
78905;BMP280;68291;49.602;8.722;2023-06-22T07:06:41;99401.06;;;27.37
78905;BMP280;68291;49.602;8.722;2023-06-22T07:09:26;99398.03;;;27.48
78905;BMP280;68291;49.602;8.722;2023-06-22T07:11:58;99403.53;;;27.61
78905;BMP280;68291;49.602;8.722;2023-06-22T07:14:50;99400.47;;;27.72
78905;BMP280;68291;49.602;8.722;2023-06-22T07:17:26;99395.75;;;27.82
78905;BMP280;68291;49.602;8.722;2023-06-22T07:20:11;99395.47;;;27.91
78905;BMP280;68291;49.602;8.722;2023-06-22T07:22:48;99387.28;;;28.00
78905;BMP280;68291;49.602;8.722;2023-06-22T07:25:20;99387.88;;;28.10
78905;BMP280;68291;49.602;8.722;2023-06-22T07:28:09;99379.84;;;28.18
78905;BMP280;68291;49.602;8.722;2023-06-22T07:31:00;99379.09;;;28.24
78905;BMP280;68291;49.602;8.722;2023-06-22T07:33:46;99373.06;;;28.30
78905;BMP280;68291;49.602;8.722;2023-06-22T07:36:43;99377.25;;;28.39
78905;BMP280;68291;49.602;8.722;2023-06-22T07:39:27;99366.56;;;28.47
78905;BMP280;68291;49.602;8.722;2023-06-22T07:42:26;99373.09;;;28.59
78905;BMP280;68291;49.602;8.722;2023-06-22T07:45:18;99371.13;;;28.67
78905;BMP280;68291;49.602;8.722;2023-06-22T07:48:07;99374.31;;;28.77
78905;BMP280;68291;49.602;8.722;2023-06-22T07:50:50;99380.97;;;28.87
78905;BMP280;68291;49.602;8.722;2023-06-22T07:53:44;99384.31;;;28.95
78905;BMP280;68291;49.602;8.722;2023-06-22T07:56:24;99387.22;;;29.00
78905;BMP280;68291;49.602;8.722;2023-06-22T07:59:10;99387.47;;;29.05
78905;BMP280;68291;49.602;8.722;2023-06-22T08:01:59;99396.97;;;29.14
78905;BMP280;68291;49.602;8.722;2023-06-22T08:05:03;99386.06;;;29.24
78905;BMP280;68291;49.602;8.722;2023-06-22T08:07:51;99385.34;;;29.29
78905;BMP280;68291;49.602;8.722;2023-06-22T08:10:30;99392.16;;;29.38
78905;BMP280;68291;49.602;8.722;2023-06-22T08:13:14;99380.38;;;29.47
78905;BMP280;68291;49.602;8.722;2023-06-22T08:15:53;99390.66;;;29.57
78905;BMP280;68291;49.602;8.722;2023-06-22T08:18:27;99386.03;;;29.65
78905;BMP280;68291;49.602;8.722;2023-06-22T08:21:19;99367.38;;;29.73
78905;BMP280;68291;49.602;8.722;2023-06-22T08:24:08;99370.88;;;29.80
78905;BMP280;68291;49.602;8.722;2023-06-22T08:26:52;99369.31;;;29.85
78905;BMP280;68291;49.602;8.722;2023-06-22T08:29:24;99365.03;;;29.91
78905;BMP280;68291;49.602;8.722;2023-06-22T08:31:58;99361.22;;;29.99
78905;BMP280;68291;49.602;8.722;2023-06-22T08:34:45;99372.31;;;30.09
78905;BMP280;68291;49.602;8.722;2023-06-22T08:37:32;99386.63;;;30.15
78905;BMP280;68291;49.602;8.722;2023-06-22T08:40:25;99381.84;;;30.25
78905;BMP280;68291;49.602;8.722;2023-06-22T08:43:00;99367.56;;;30.32
78905;BMP280;68291;49.602;8.722;2023-06-22T08:45:47;99361.47;;;30.38
78905;BMP280;68291;49.602;8.722;2023-06-22T08:48:23;99358.44;;;30.47
78905;BMP280;68291;49.602;8.722;2023-06-22T08:51:12;99362.78;;;30.55
78905;BMP280;68291;49.602;8.722;2023-06-22T08:53:58;99359.97;;;30.63
78905;BMP280;68291;49.602;8.722;2023-06-22T08:56:49;99349.75;;;30.72
78905;BMP280;68291;49.602;8.722;2023-06-22T08:59:31;99346.53;;;30.77
78905;BMP280;68291;49.602;8.722;2023-06-22T09:02:03;99360.03;;;30.88
78905;BMP280;68291;49.602;8.722;2023-06-22T09:04:44;99351.69;;;30.91
78905;BMP280;68291;49.602;8.722;2023-06-22T09:07:17;99344.56;;;31.11
78905;BMP280;68291;49.602;8.722;2023-06-22T09:10:25;99345.19;;;31.26
78905;BMP280;68291;49.602;8.722;2023-06-22T09:13:10;99341.34;;;31.41
78905;BMP280;68291;49.602;8.722;2023-06-22T09:15:53;99342.78;;;31.56
78905;BMP280;68291;49.602;8.722;2023-06-22T09:18:39;99338.06;;;31.71
78905;BMP280;68291;49.602;8.722;2023-06-22T09:21:34;99338.25;;;31.89
78905;BMP280;68291;49.602;8.722;2023-06-22T09:24:30;99339.25;;;32.07
78905;BMP280;68291;49.602;8.722;2023-06-22T09:27:28;99351.31;;;32.22
78905;BMP280;68291;49.602;8.722;2023-06-22T09:30:15;99350.09;;;32.31
78905;BMP280;68291;49.602;8.722;2023-06-22T09:32:56;99345.13;;;32.41
78905;BMP280;68291;49.602;8.722;2023-06-22T09:35:37;99343.66;;;32.45
78905;BMP280;68291;49.602;8.722;2023-06-22T09:38:12;99321.50;;;32.51
78905;BMP280;68291;49.602;8.722;2023-06-22T09:40:58;99314.72;;;32.55
78905;BMP280;68291;49.602;8.722;2023-06-22T09:43:34;99317.97;;;32.63
78905;BMP280;68291;49.602;8.722;2023-06-22T09:46:24;99321.38;;;32.77
78905;BMP280;68291;49.602;8.722;2023-06-22T09:49:09;99303.25;;;32.91
78905;BMP280;68291;49.602;8.722;2023-06-22T09:51:51;99286.16;;;32.99
78905;BMP280;68291;49.602;8.722;2023-06-22T09:54:23;99275.78;;;33.15
78905;BMP280;68291;49.602;8.722;2023-06-22T09:57:09;99287.81;;;33.30
78905;BMP280;68291;49.602;8.722;2023-06-22T10:00:23;99274.41;;;33.37
78905;BMP280;68291;49.602;8.722;2023-06-22T10:03:11;99265.47;;;33.49
78905;BMP280;68291;49.602;8.722;2023-06-22T10:05:59;99265.19;;;33.57
78905;BMP280;68291;49.602;8.722;2023-06-22T10:08:44;99257.09;;;33.63
78905;BMP280;68291;49.602;8.722;2023-06-22T10:11:17;99253.38;;;33.64
78905;BMP280;68291;49.602;8.722;2023-06-22T10:13:59;99242.69;;;33.64
78905;BMP280;68291;49.602;8.722;2023-06-22T10:16:41;99242.25;;;33.67
78905;BMP280;68291;49.602;8.722;2023-06-22T10:19:22;99246.72;;;33.73
78905;BMP280;68291;49.602;8.722;2023-06-22T10:22:05;99242.13;;;33.80
78905;BMP280;68291;49.602;8.722;2023-06-22T10:24:36;99234.06;;;33.86
78905;BMP280;68291;49.602;8.722;2023-06-22T10:27:16;99234.81;;;33.93
78905;BMP280;68291;49.602;8.722;2023-06-22T10:30:00;99238.22;;;34.00
78905;BMP280;68291;49.602;8.722;2023-06-22T10:32:53;99238.16;;;34.07
78905;BMP280;68291;49.602;8.722;2023-06-22T10:35:47;99231.44;;;34.16
78905;BMP280;68291;49.602;8.722;2023-06-22T10:38:38;99237.47;;;34.29
78905;BMP280;68291;49.602;8.722;2023-06-22T10:41:24;99228.69;;;34.40
78905;BMP280;68291;49.602;8.722;2023-06-22T10:44:03;99212.91;;;34.50
78905;BMP280;68291;49.602;8.722;2023-06-22T10:46:42;99211.19;;;34.55
78905;BMP280;68291;49.602;8.722;2023-06-22T10:49:20;99215.03;;;34.59
78905;BMP280;68291;49.602;8.722;2023-06-22T10:52:09;99198.50;;;34.62
78905;BMP280;68291;49.602;8.722;2023-06-22T10:55:06;99198.66;;;34.67
78905;BMP280;68291;49.602;8.722;2023-06-22T10:57:48;99200.91;;;34.81
78905;BMP280;68291;49.602;8.722;2023-06-22T11:00:46;99188.75;;;34.96
78905;BMP280;68291;49.602;8.722;2023-06-22T11:03:32;99186.31;;;35.06
78905;BMP280;68291;49.602;8.722;2023-06-22T11:06:32;99193.75;;;35.16
78905;BMP280;68291;49.602;8.722;2023-06-22T11:09:12;99191.56;;;35.24
78905;BMP280;68291;49.602;8.722;2023-06-22T11:11:52;99195.41;;;35.28
78905;BMP280;68291;49.602;8.722;2023-06-22T11:14:23;99200.66;;;35.34
78905;BMP280;68291;49.602;8.722;2023-06-22T11:17:04;99186.81;;;35.37
78905;BMP280;68291;49.602;8.722;2023-06-22T11:19:45;99187.16;;;35.41
78905;BMP280;68291;49.602;8.722;2023-06-22T11:22:19;99184.34;;;35.47
78905;BMP280;68291;49.602;8.722;2023-06-22T11:24:54;99182.72;;;35.58
78905;BMP280;68291;49.602;8.722;2023-06-22T11:27:25;99171.63;;;35.65
78905;BMP280;68291;49.602;8.722;2023-06-22T11:30:11;99178.16;;;35.81
78905;BMP280;68291;49.602;8.722;2023-06-22T11:32:52;99173.81;;;35.91
78905;BMP280;68291;49.602;8.722;2023-06-22T11:35:32;99168.56;;;35.96
78905;BMP280;68291;49.602;8.722;2023-06-22T11:38:52;99165.28;;;35.94
78905;BMP280;68291;49.602;8.722;2023-06-22T11:41:45;99155.97;;;35.96
78905;BMP280;68291;49.602;8.722;2023-06-22T11:44:42;99157.13;;;36.00
78905;BMP280;68291;49.602;8.722;2023-06-22T11:47:24;99164.09;;;36.01
78905;BMP280;68291;49.602;8.722;2023-06-22T11:50:06;99159.00;;;36.00
78905;BMP280;68291;49.602;8.722;2023-06-22T11:52:54;99163.28;;;36.01
78905;BMP280;68291;49.602;8.722;2023-06-22T11:55:41;99151.03;;;36.05
78905;BMP280;68291;49.602;8.722;2023-06-22T11:58:32;99149.84;;;36.12
78905;BMP280;68291;49.602;8.722;2023-06-22T12:01:13;99152.97;;;36.21
78905;BMP280;68291;49.602;8.722;2023-06-22T12:03:48;99154.78;;;36.31
78905;BMP280;68291;49.602;8.722;2023-06-22T12:06:46;99154.97;;;36.41
78905;BMP280;68291;49.602;8.722;2023-06-22T12:09:37;99152.22;;;36.53
78905;BMP280;68291;49.602;8.722;2023-06-22T12:12:38;99149.31;;;36.54
78905;BMP280;68291;49.602;8.722;2023-06-22T12:15:18;99141.84;;;36.56
78905;BMP280;68291;49.602;8.722;2023-06-22T12:17:57;99138.44;;;36.61
78905;BMP280;68291;49.602;8.722;2023-06-22T12:20:36;99141.47;;;36.64
78905;BMP280;68291;49.602;8.722;2023-06-22T12:23:18;99131.56;;;36.53
78905;BMP280;68291;49.602;8.722;2023-06-22T12:25:51;99128.88;;;36.37
78905;BMP280;68291;49.602;8.722;2023-06-22T12:28:51;99132.53;;;36.31
78905;BMP280;68291;49.602;8.722;2023-06-22T12:31:51;99130.50;;;36.38
78905;BMP280;68291;49.602;8.722;2023-06-22T12:34:37;99133.22;;;36.54
78905;BMP280;68291;49.602;8.722;2023-06-22T12:37:08;99132.59;;;36.63
78905;BMP280;68291;49.602;8.722;2023-06-22T12:39:49;99143.25;;;36.59
78905;BMP280;68291;49.602;8.722;2023-06-22T12:42:22;99150.34;;;36.64
78905;BMP280;68291;49.602;8.722;2023-06-22T12:45:25;99152.59;;;36.72
78905;BMP280;68291;49.602;8.722;2023-06-22T12:48:01;99153.09;;;36.86
78905;BMP280;68291;49.602;8.722;2023-06-22T12:50:41;99150.91;;;37.15
78905;BMP280;68291;49.602;8.722;2023-06-22T12:53:36;99146.03;;;37.50
78905;BMP280;68291;49.602;8.722;2023-06-22T12:56:31;99155.22;;;37.91
78905;BMP280;68291;49.602;8.722;2023-06-22T12:59:04;99137.22;;;38.18
78905;BMP280;68291;49.602;8.722;2023-06-22T13:02:05;99150.63;;;38.34
78905;BMP280;68291;49.602;8.722;2023-06-22T13:04:57;99152.25;;;38.35
78905;BMP280;68291;49.602;8.722;2023-06-22T13:07:53;99149.06;;;38.17
78905;BMP280;68291;49.602;8.722;2023-06-22T13:10:29;99151.63;;;37.86
78905;BMP280;68291;49.602;8.722;2023-06-22T13:13:01;99142.28;;;37.67
78905;BMP280;68291;49.602;8.722;2023-06-22T13:15:33;99146.94;;;37.55
78905;BMP280;68291;49.602;8.722;2023-06-22T13:18:24;99141.03;;;37.37
78905;BMP280;68291;49.602;8.722;2023-06-22T13:21:01;99145.69;;;37.25
78905;BMP280;68291;49.602;8.722;2023-06-22T13:23:35;99145.91;;;37.24
78905;BMP280;68291;49.602;8.722;2023-06-22T13:26:13;99140.94;;;37.32
78905;BMP280;68291;49.602;8.722;2023-06-22T13:28:53;99140.13;;;37.48
78905;BMP280;68291;49.602;8.722;2023-06-22T13:31:34;99147.25;;;37.80
78905;BMP280;68291;49.602;8.722;2023-06-22T13:34:56;99139.31;;;38.63
78905;BMP280;68291;49.602;8.722;2023-06-22T13:37:53;99125.84;;;39.30
78905;BMP280;68291;49.602;8.722;2023-06-22T13:40:50;99133.66;;;39.73
78905;BMP280;68291;49.602;8.722;2023-06-22T13:43:26;99133.53;;;40.04
78905;BMP280;68291;49.602;8.722;2023-06-22T13:46:18;99111.19;;;40.23
78905;BMP280;68291;49.602;8.722;2023-06-22T13:49:00;99104.75;;;40.39
78905;BMP280;68291;49.602;8.722;2023-06-22T13:51:54;99100.97;;;40.40
78905;BMP280;68291;49.602;8.722;2023-06-22T13:54:31;99091.25;;;40.39
78905;BMP280;68291;49.602;8.722;2023-06-22T13:57:04;99088.50;;;40.29
78905;BMP280;68291;49.602;8.722;2023-06-22T13:59:49;99070.13;;;40.01
78905;BMP280;68291;49.602;8.722;2023-06-22T14:02:41;99072.22;;;39.89
78905;BMP280;68291;49.602;8.722;2023-06-22T14:05:28;99064.09;;;39.75
78905;BMP280;68291;49.602;8.722;2023-06-22T14:08:16;99068.63;;;39.64
78905;BMP280;68291;49.602;8.722;2023-06-22T14:11:14;99058.38;;;39.56
78905;BMP280;68291;49.602;8.722;2023-06-22T14:14:03;99055.88;;;39.45
78905;BMP280;68291;49.602;8.722;2023-06-22T14:16:59;99054.13;;;39.19
78905;BMP280;68291;49.602;8.722;2023-06-22T14:19:55;99059.84;;;38.87
78905;BMP280;68291;49.602;8.722;2023-06-22T14:22:28;99055.53;;;38.55
78905;BMP280;68291;49.602;8.722;2023-06-22T14:25:16;99048.50;;;38.23
78905;BMP280;68291;49.602;8.722;2023-06-22T14:27:52;99042.13;;;38.03
78905;BMP280;68291;49.602;8.722;2023-06-22T14:30:34;99042.66;;;37.78
78905;BMP280;68291;49.602;8.722;2023-06-22T14:33:17;99020.81;;;37.49
78905;BMP280;68291;49.602;8.722;2023-06-22T14:36:05;99030.13;;;37.20
78905;BMP280;68291;49.602;8.722;2023-06-22T14:38:42;99034.16;;;36.85
78905;BMP280;68291;49.602;8.722;2023-06-22T14:41:25;99046.22;;;36.50
78905;BMP280;68291;49.602;8.722;2023-06-22T14:44:05;99048.88;;;36.18
78905;BMP280;68291;49.602;8.722;2023-06-22T14:46:59;99047.84;;;35.91
78905;BMP280;68291;49.602;8.722;2023-06-22T14:49:56;99038.69;;;35.64
78905;BMP280;68291;49.602;8.722;2023-06-22T14:52:36;99039.00;;;35.52
78905;BMP280;68291;49.602;8.722;2023-06-22T14:55:09;99017.94;;;35.44
78905;BMP280;68291;49.602;8.722;2023-06-22T14:57:47;99017.47;;;35.47
78905;BMP280;68291;49.602;8.722;2023-06-22T15:00:30;99012.19;;;35.52
78905;BMP280;68291;49.602;8.722;2023-06-22T15:03:16;99014.28;;;35.50
78905;BMP280;68291;49.602;8.722;2023-06-22T15:05:51;99020.94;;;35.47
78905;BMP280;68291;49.602;8.722;2023-06-22T15:08:26;99006.44;;;35.32
78905;BMP280;68291;49.602;8.722;2023-06-22T15:11:10;98987.84;;;35.14
78905;BMP280;68291;49.602;8.722;2023-06-22T15:13:52;98992.63;;;35.23
78905;BMP280;68291;49.602;8.722;2023-06-22T15:16:45;98975.50;;;35.13
78905;BMP280;68291;49.602;8.722;2023-06-22T15:19:16;98963.63;;;35.09
78905;BMP280;68291;49.602;8.722;2023-06-22T15:22:08;98958.06;;;35.11
78905;BMP280;68291;49.602;8.722;2023-06-22T15:24:47;98958.19;;;35.04
78905;BMP280;68291;49.602;8.722;2023-06-22T15:27:27;98971.16;;;34.85
78905;BMP280;68291;49.602;8.722;2023-06-22T15:30:06;98988.38;;;34.88
78905;BMP280;68291;49.602;8.722;2023-06-22T15:32:37;98978.19;;;35.13
78905;BMP280;68291;49.602;8.722;2023-06-22T15:35:23;98972.28;;;35.50
78905;BMP280;68291;49.602;8.722;2023-06-22T15:37:57;98977.09;;;35.92
78905;BMP280;68291;49.602;8.722;2023-06-22T15:40:38;98981.50;;;36.47
78905;BMP280;68291;49.602;8.722;2023-06-22T15:43:21;98982.41;;;36.90
78905;BMP280;68291;49.602;8.722;2023-06-22T15:46:41;98985.31;;;37.04
78905;BMP280;68291;49.602;8.722;2023-06-22T15:49:20;98982.22;;;36.96